createdAt,value
2022-09-22T00:02:26.570Z,9.48
2022-09-22T00:05:29.869Z,9.58
2022-09-22T00:08:36.708Z,9.60
2022-09-22T00:11:43.147Z,9.64
2022-09-22T00:14:45.617Z,9.60
2022-09-22T00:17:48.456Z,9.48
2022-09-22T00:20:51.250Z,9.46
2022-09-22T00:23:54.977Z,9.52
2022-09-22T00:26:59.314Z,9.45
2022-09-22T00:30:02.316Z,9.43
2022-09-22T00:33:05.079Z,9.36
2022-09-22T00:36:08.919Z,9.23
2022-09-22T00:39:12.913Z,9.13
2022-09-22T00:42:16.098Z,9.08
2022-09-22T00:45:18.596Z,8.97
2022-09-22T00:48:24.472Z,8.91
2022-09-22T00:51:32.152Z,8.94
2022-09-22T00:54:35.537Z,8.81
2022-09-22T00:57:40.937Z,8.75
2022-09-22T01:00:44.604Z,8.88
2022-09-22T01:03:49.140Z,8.82
2022-09-22T01:06:53.390Z,8.74
2022-09-22T01:09:57.534Z,8.63
2022-09-22T01:13:26.197Z,8.61
2022-09-22T01:16:40.371Z,8.59
2022-09-22T01:20:12.813Z,8.69
2022-09-22T01:23:50.826Z,8.58
2022-09-22T01:27:15.519Z,8.52
2022-09-22T01:30:22.355Z,8.53
2022-09-22T01:33:54.448Z,8.52
2022-09-22T01:37:07.466Z,8.47
2022-09-22T01:40:16.492Z,8.43
2022-09-22T01:43:40.550Z,8.35
2022-09-22T01:47:19.592Z,8.35
2022-09-22T01:50:28.867Z,8.34
2022-09-22T01:53:39.677Z,8.38
2022-09-22T01:56:46.080Z,8.34
2022-09-22T01:59:59.792Z,8.36
2022-09-22T02:03:22.048Z,8.53
2022-09-22T02:06:33.948Z,8.58
2022-09-22T02:09:39.990Z,8.62
2022-09-22T02:12:42.959Z,8.51
2022-09-22T02:16:00.652Z,8.39
2022-09-22T02:19:16.207Z,8.33
2022-09-22T02:22:19.012Z,8.25
2022-09-22T02:25:25.005Z,8.18
2022-09-22T02:28:30.169Z,8.22
2022-09-22T02:31:36.302Z,8.10
2022-09-22T02:34:38.993Z,8.06
2022-09-22T02:38:13.044Z,8.13
2022-09-22T02:41:43.677Z,8.16
2022-09-22T02:44:52.251Z,8.06
2022-09-22T02:48:18.196Z,7.93
2022-09-22T02:51:20.921Z,7.95
2022-09-22T02:54:23.574Z,7.98
2022-09-22T02:57:26.369Z,7.93
2022-09-22T03:00:29.066Z,7.93
2022-09-22T03:03:31.983Z,7.76
2022-09-22T03:06:34.906Z,7.69
2022-09-22T03:09:37.801Z,7.56
2022-09-22T03:13:02.308Z,7.46
2022-09-22T03:16:06.477Z,7.40
2022-09-22T03:19:09.068Z,7.36
2022-09-22T03:22:11.843Z,7.31
2022-09-22T03:25:14.422Z,7.32
2022-09-22T03:28:17.644Z,7.27
2022-09-22T03:31:20.351Z,7.28
2022-09-22T03:34:23.093Z,7.34
2022-09-22T03:37:26.223Z,7.36
2022-09-22T03:40:29.084Z,7.30
2022-09-22T03:43:31.575Z,7.21
2022-09-22T03:46:34.558Z,7.16
2022-09-22T03:49:37.064Z,7.14
2022-09-22T03:52:43.017Z,7.11
2022-09-22T03:55:45.469Z,7.14
2022-09-22T03:58:48.198Z,7.08
2022-09-22T04:01:53.582Z,7.08
2022-09-22T04:05:00.293Z,7.15
2022-09-22T04:08:02.773Z,7.19
2022-09-22T04:11:05.920Z,7.19
2022-09-22T04:14:08.436Z,7.20
2022-09-22T04:17:15.156Z,7.21
2022-09-22T04:20:17.741Z,7.31
2022-09-22T04:23:20.545Z,7.25
2022-09-22T04:26:23.422Z,7.25
2022-09-22T04:29:26.180Z,7.29
2022-09-22T04:32:28.643Z,7.25
2022-09-22T04:35:31.821Z,7.31
2022-09-22T04:38:34.628Z,7.36
2022-09-22T04:41:37.562Z,7.36
2022-09-22T04:44:40.068Z,7.40
2022-09-22T04:47:47.735Z,7.45
2022-09-22T04:50:50.219Z,7.41
2022-09-22T04:53:53.112Z,7.38
2022-09-22T04:56:55.663Z,7.38
2022-09-22T05:00:01.751Z,7.41
2022-09-22T05:03:10.273Z,7.50
2022-09-22T05:06:13.117Z,7.52
2022-09-22T05:09:15.680Z,7.52
2022-09-22T05:12:20.527Z,7.59
2022-09-22T05:15:23.584Z,7.53
2022-09-22T05:18:26.527Z,7.47
2022-09-22T05:21:29.052Z,7.53
2022-09-22T05:24:32.446Z,7.61
2022-09-22T05:27:34.982Z,7.65
2022-09-22T05:30:37.752Z,7.78
2022-09-22T05:33:40.348Z,7.92
2022-09-22T05:36:43.177Z,8.07
2022-09-22T05:39:45.673Z,8.27
2022-09-22T05:42:51.373Z,8.36
2022-09-22T05:45:54.025Z,8.58
2022-09-22T05:48:57.004Z,8.81
2022-09-22T05:51:59.689Z,9.03
2022-09-22T05:55:02.609Z,9.22
2022-09-22T05:58:05.811Z,9.30
2022-09-22T06:01:08.618Z,9.42
2022-09-22T06:04:11.492Z,9.70
2022-09-22T06:07:14.086Z,9.96
2022-09-22T06:10:16.951Z,10.12
2022-09-22T06:13:19.531Z,10.14
2022-09-22T06:16:22.413Z,10.29
2022-09-22T06:19:26.081Z,10.44
2022-09-22T06:22:28.946Z,10.57
2022-09-22T06:25:31.503Z,10.78
2022-09-22T06:28:34.284Z,11.13
2022-09-22T06:31:37.187Z,11.30
2022-09-22T06:34:39.959Z,11.45
2022-09-22T06:37:42.928Z,11.49
2022-09-22T06:40:45.867Z,11.60
2022-09-22T06:43:50.241Z,11.75
2022-09-22T06:46:53.105Z,11.75
2022-09-22T06:49:55.570Z,11.83
2022-09-22T06:53:11.268Z,11.92
2022-09-22T06:56:13.780Z,12.14
2022-09-22T06:59:17.033Z,12.19
2022-09-22T07:02:20.173Z,12.27
2022-09-22T07:05:22.972Z,12.43
2022-09-22T07:08:25.798Z,12.45
2022-09-22T07:11:28.621Z,12.66
2022-09-22T07:14:31.227Z,12.82
2022-09-22T07:17:36.919Z,13.04
2022-09-22T07:20:39.449Z,13.36
2022-09-22T07:23:44.303Z,13.71
2022-09-22T07:26:46.915Z,13.81
2022-09-22T07:29:49.682Z,14.00
2022-09-22T07:32:52.567Z,14.02
2022-09-22T07:36:02.003Z,13.82
2022-09-22T07:39:07.466Z,13.81
2022-09-22T07:42:10.294Z,13.73
2022-09-22T07:45:12.981Z,13.61
2022-09-22T07:48:34.409Z,13.48
2022-09-22T07:51:38.560Z,13.37
2022-09-22T07:54:41.848Z,13.21
2022-09-22T07:57:44.953Z,13.26
2022-09-22T08:00:47.820Z,13.05
2022-09-22T08:03:51.082Z,12.92
2022-09-22T08:06:57.961Z,12.96
2022-09-22T08:10:00.750Z,13.30
2022-09-22T08:13:04.672Z,13.62
2022-09-22T08:16:07.537Z,13.53
2022-09-22T08:19:14.575Z,13.98
2022-09-22T08:22:18.835Z,14.21
2022-09-22T08:25:21.362Z,14.52
2022-09-22T08:28:24.262Z,14.53
2022-09-22T08:31:27.490Z,14.80
2022-09-22T08:34:30.276Z,14.88
2022-09-22T08:37:32.694Z,15.26
2022-09-22T08:40:35.622Z,15.38
2022-09-22T08:43:45.790Z,15.60
2022-09-22T08:46:49.369Z,15.74
2022-09-22T08:50:11.116Z,16.04
2022-09-22T08:53:18.570Z,16.06
2022-09-22T08:56:55.120Z,15.98
2022-09-22T09:00:06.802Z,16.47
2022-09-22T09:03:47.805Z,16.61
2022-09-22T09:07:13.409Z,16.68
2022-09-22T09:10:32.858Z,16.63
2022-09-22T09:14:06.297Z,16.91
2022-09-22T09:17:16.720Z,17.01
2022-09-22T09:20:44.319Z,17.11
2022-09-22T09:27:21.716Z,16.72
2022-09-22T09:30:24.671Z,16.30
2022-09-22T09:33:41.150Z,16.17
2022-09-22T09:36:55.264Z,16.40
2022-09-22T09:40:03.079Z,16.48
2022-09-22T09:43:06.209Z,16.65
2022-09-22T09:46:19.348Z,16.67
2022-09-22T09:49:23.340Z,16.33
2022-09-22T09:52:27.736Z,16.54
2022-09-22T09:55:30.262Z,16.30
2022-09-22T09:58:51.894Z,16.75
2022-09-22T10:01:54.932Z,16.92
2022-09-22T10:05:04.826Z,16.94
2022-09-22T10:08:21.214Z,16.82
2022-09-22T10:11:33.710Z,17.01
2022-09-22T10:14:36.433Z,17.09
2022-09-22T10:17:41.855Z,17.37
2022-09-22T10:20:44.503Z,17.60
2022-09-22T10:23:51.002Z,18.05
2022-09-22T10:26:57.553Z,18.08
2022-09-22T10:30:23.617Z,18.29
2022-09-22T10:33:26.569Z,18.62
2022-09-22T10:36:30.831Z,18.58
2022-09-22T10:39:52.764Z,18.45
2022-09-22T10:42:57.590Z,18.14
2022-09-22T10:46:03.020Z,18.14
2022-09-22T10:49:15.020Z,18.15
2022-09-22T10:52:36.707Z,18.18
2022-09-22T10:55:55.721Z,18.23
2022-09-22T10:59:18.952Z,18.00
2022-09-22T11:02:58.846Z,17.89
2022-09-22T11:06:57.046Z,18.00
2022-09-22T11:10:29.792Z,18.34
2022-09-22T11:14:09.292Z,18.44
2022-09-22T11:17:34.706Z,18.12
2022-09-22T11:20:44.890Z,18.22
2022-09-22T11:24:03.280Z,18.60
2022-09-22T11:27:09.208Z,18.40
2022-09-22T11:30:20.737Z,18.07
2022-09-22T11:33:58.152Z,18.09
2022-09-22T11:37:30.857Z,17.77
2022-09-22T11:40:58.453Z,17.72
2022-09-22T11:44:39.356Z,17.44
2022-09-22T11:47:59.213Z,17.12
2022-09-22T11:51:31.732Z,17.11
2022-09-22T11:55:01.991Z,17.11
2022-09-22T11:58:18.847Z,16.87
2022-09-22T12:01:29.458Z,16.86
2022-09-22T12:05:01.532Z,16.95
2022-09-22T12:08:08.041Z,17.22
2022-09-22T12:11:14.912Z,17.36
2022-09-22T12:14:17.723Z,17.78
2022-09-22T12:17:29.931Z,18.12
2022-09-22T12:20:45.850Z,18.64
2022-09-22T12:23:51.464Z,18.73
2022-09-22T12:26:54.318Z,18.47
2022-09-22T12:30:00.401Z,18.54
2022-09-22T12:33:03.028Z,18.54
2022-09-22T12:36:06.951Z,18.13
2022-09-22T12:39:16.349Z,17.61
2022-09-22T12:42:30.856Z,16.99
2022-09-22T12:45:36.661Z,16.49
2022-09-22T12:48:39.800Z,16.12
2022-09-22T12:51:42.828Z,15.76
2022-09-22T12:54:46.892Z,15.42
2022-09-22T12:57:51.457Z,15.21
2022-09-22T13:00:56.524Z,15.30
2022-09-22T13:04:25.621Z,15.70
2022-09-22T13:07:41.273Z,16.03
2022-09-22T13:11:09.223Z,16.30
2022-09-22T13:14:49.547Z,16.56
2022-09-22T13:17:52.222Z,16.67
2022-09-22T13:20:55.131Z,16.69
2022-09-22T13:24:02.607Z,16.92
2022-09-22T13:27:05.441Z,16.94
2022-09-22T13:30:14.232Z,16.97
2022-09-22T13:33:22.932Z,17.13
2022-09-22T13:36:27.501Z,17.21
2022-09-22T13:39:35.479Z,17.21
2022-09-22T13:42:42.399Z,17.41
2022-09-22T13:45:45.976Z,17.47
2022-09-22T13:48:51.860Z,17.54
2022-09-22T13:52:06.448Z,17.66
2022-09-22T13:55:19.657Z,17.50
2022-09-22T13:58:39.861Z,17.47
2022-09-22T14:01:53.355Z,17.54
2022-09-22T14:05:01.853Z,17.60
2022-09-22T14:08:12.839Z,17.65
2022-09-22T14:11:27.692Z,17.38
2022-09-22T14:14:30.950Z,17.17
2022-09-22T14:17:33.886Z,17.06
2022-09-22T14:20:41.748Z,17.18
2022-09-22T14:23:49.063Z,17.69
2022-09-22T14:27:03.992Z,17.99
2022-09-22T14:30:17.622Z,18.03
2022-09-22T14:33:28.936Z,17.64
2022-09-22T14:36:31.770Z,17.73
2022-09-22T14:39:34.500Z,17.89
2022-09-22T14:42:37.429Z,17.70
2022-09-22T14:45:56.894Z,17.45
2022-09-22T14:49:37.225Z,17.16
2022-09-22T14:52:57.467Z,16.68
2022-09-22T14:56:04.166Z,16.43
2022-09-22T14:59:35.406Z,16.13
2022-09-22T15:02:41.520Z,16.11
2022-09-22T15:05:45.438Z,16.00
2022-09-22T15:08:52.019Z,15.90
2022-09-22T15:12:00.511Z,15.78
2022-09-22T15:15:13.839Z,15.85
2022-09-22T15:18:16.690Z,15.76
2022-09-22T15:21:19.493Z,15.95
2022-09-22T15:24:26.846Z,15.91
2022-09-22T15:27:30.912Z,16.66
2022-09-22T15:30:33.457Z,17.87
2022-09-22T15:33:36.295Z,18.47
2022-09-22T15:36:45.858Z,17.79
2022-09-22T15:39:48.832Z,17.15
2022-09-22T15:43:11.816Z,16.49
2022-09-22T15:46:37.155Z,16.04
2022-09-22T15:49:40.180Z,15.73
2022-09-22T15:52:46.713Z,15.54
2022-09-22T15:55:51.199Z,15.90
2022-09-22T15:58:55.808Z,15.80
2022-09-22T16:01:59.508Z,15.78
2022-09-22T16:05:04.459Z,15.59
2022-09-22T16:08:07.204Z,15.48
2022-09-22T16:11:16.215Z,15.40
2022-09-22T16:14:18.718Z,15.40
2022-09-22T16:17:24.102Z,15.27
2022-09-22T16:20:26.656Z,15.39
2022-09-22T16:23:29.604Z,15.21
2022-09-22T16:26:32.726Z,15.04
2022-09-22T16:29:37.432Z,14.91
2022-09-22T16:32:40.054Z,14.81
2022-09-22T16:35:42.913Z,14.73
2022-09-22T16:38:45.720Z,14.73
2022-09-22T16:41:48.583Z,14.74
2022-09-22T16:44:51.076Z,14.58
2022-09-22T16:47:54.480Z,14.40
2022-09-22T16:50:57.009Z,14.20
2022-09-22T16:54:00.167Z,13.92
2022-09-22T16:57:02.828Z,13.89
2022-09-22T17:00:06.179Z,13.76
2022-09-22T17:03:08.752Z,13.73
2022-09-22T17:06:13.278Z,13.51
2022-09-22T17:09:17.117Z,13.31
2022-09-22T17:12:22.983Z,13.30
2022-09-22T17:15:25.713Z,13.15
2022-09-22T17:18:28.752Z,13.09
2022-09-22T17:21:34.534Z,13.26
2022-09-22T17:24:37.935Z,13.27
2022-09-22T17:27:40.502Z,13.22
2022-09-22T17:30:43.300Z,13.08
2022-09-22T17:33:50.109Z,12.96
2022-09-22T17:36:55.950Z,13.11
2022-09-22T17:39:58.392Z,12.94
2022-09-22T17:43:05.725Z,12.87
2022-09-22T17:46:08.343Z,12.79
2022-09-22T17:49:32.466Z,12.90
2022-09-22T17:52:39.734Z,12.82
2022-09-22T17:55:42.633Z,12.73
2022-09-22T17:58:45.201Z,12.67
2022-09-22T18:01:50.133Z,12.64
2022-09-22T18:04:55.858Z,12.58
2022-09-22T18:07:58.977Z,12.57
2022-09-22T18:11:01.780Z,12.52
2022-09-22T18:14:06.203Z,12.45
2022-09-22T18:17:10.348Z,12.36
2022-09-22T18:20:16.980Z,12.36
2022-09-22T18:23:19.957Z,12.25
2022-09-22T18:26:22.432Z,12.08
2022-09-22T18:29:26.156Z,11.96
2022-09-22T18:32:29.185Z,11.85
2022-09-22T18:35:32.194Z,11.89
2022-09-22T18:38:35.004Z,11.77
2022-09-22T18:41:37.840Z,11.73
2022-09-22T18:44:41.747Z,11.79
2022-09-22T18:47:44.623Z,11.86
2022-09-22T18:50:50.059Z,11.70
2022-09-22T18:53:54.387Z,11.61
2022-09-22T18:56:57.684Z,11.60
2022-09-22T19:00:01.175Z,11.54
2022-09-22T19:03:03.934Z,11.46
2022-09-22T19:06:07.500Z,11.44
2022-09-22T19:09:10.177Z,11.37
2022-09-22T19:12:13.052Z,11.27
2022-09-22T19:15:18.779Z,11.27
2022-09-22T19:21:25.841Z,11.27
2022-09-22T19:24:28.639Z,11.21
2022-09-22T19:27:32.410Z,11.18
2022-09-22T19:30:35.636Z,11.15
2022-09-22T19:33:38.114Z,11.23
2022-09-22T19:36:41.609Z,11.30
2022-09-22T19:39:44.458Z,11.21
2022-09-22T19:42:48.687Z,11.14
2022-09-22T19:45:52.281Z,11.10
2022-09-22T19:48:55.113Z,10.99
2022-09-22T19:51:57.655Z,11.04
2022-09-22T19:55:00.736Z,10.98
2022-09-22T19:58:03.263Z,10.92
2022-09-22T20:01:09.256Z,10.80
2022-09-22T20:04:15.476Z,10.70
2022-09-22T20:07:18.012Z,10.64
2022-09-22T20:10:22.623Z,10.58
2022-09-22T20:13:43.610Z,10.54
2022-09-22T20:16:51.245Z,10.46
2022-09-22T20:19:55.209Z,10.34
2022-09-22T20:23:04.109Z,10.48
2022-09-22T20:26:06.627Z,10.43
2022-09-22T20:29:10.614Z,10.33
2022-09-22T20:32:13.135Z,10.40
2022-09-22T20:35:19.023Z,10.40
2022-09-22T20:38:22.023Z,10.31
2022-09-22T20:41:25.001Z,10.18
2022-09-22T20:44:27.681Z,10.17
2022-09-22T20:47:30.629Z,10.22
2022-09-22T20:50:33.277Z,10.16
2022-09-22T20:53:36.731Z,10.15
2022-09-22T20:56:42.634Z,10.19
2022-09-22T20:59:46.293Z,10.08
2022-09-22T21:02:49.117Z,10.01
2022-09-22T21:05:52.168Z,10.00
2022-09-22T21:09:13.362Z,9.93
2022-09-22T21:12:16.170Z,9.87
2022-09-22T21:15:22.397Z,9.81
2022-09-22T21:18:26.481Z,9.74
2022-09-22T21:21:33.538Z,9.67
2022-09-22T21:24:36.334Z,9.61
2022-09-22T21:27:39.055Z,9.51
2022-09-22T21:30:41.950Z,9.47
2022-09-22T21:33:44.945Z,9.39
2022-09-22T21:36:47.776Z,9.31
2022-09-22T21:39:50.329Z,9.27
2022-09-22T21:42:53.121Z,9.22
2022-09-22T21:46:04.394Z,9.17
2022-09-22T21:49:09.234Z,9.17
2022-09-22T21:52:11.724Z,9.25
2022-09-22T21:55:14.565Z,9.23
2022-09-22T21:58:17.342Z,9.33
2022-09-22T22:01:28.511Z,9.34
2022-09-22T22:04:32.596Z,9.27
2022-09-22T22:07:35.092Z,9.22
2022-09-22T22:10:39.163Z,9.15
2022-09-22T22:13:44.291Z,9.16
2022-09-22T22:16:49.591Z,9.01
2022-09-22T22:19:52.087Z,8.91
2022-09-22T22:22:56.142Z,8.85
2022-09-22T22:26:02.531Z,8.83
2022-09-22T22:29:05.465Z,8.82
2022-09-22T22:32:10.211Z,8.72
2022-09-22T22:35:12.969Z,8.75
2022-09-22T22:38:16.592Z,8.68
2022-09-22T22:41:19.442Z,8.53
2022-09-22T22:44:22.525Z,8.44
2022-09-22T22:47:25.607Z,8.43
2022-09-22T22:50:28.430Z,8.37
2022-09-22T22:53:31.220Z,8.29
2022-09-22T22:56:33.683Z,8.23
2022-09-22T22:59:36.459Z,8.22
2022-09-22T23:02:39.037Z,8.22
2022-09-22T23:05:43.199Z,8.21
2022-09-22T23:08:46.387Z,8.26
2022-09-22T23:11:49.136Z,8.27
2022-09-22T23:14:51.649Z,8.23
2022-09-22T23:17:54.438Z,8.18
2022-09-22T23:20:56.821Z,8.20
2022-09-22T23:24:01.061Z,8.17
2022-09-22T23:27:04.907Z,8.14
2022-09-22T23:30:08.261Z,8.22
2022-09-22T23:33:11.320Z,8.02
2022-09-22T23:36:17.199Z,7.98
2022-09-22T23:39:19.683Z,7.99
2022-09-22T23:42:22.516Z,7.94
2022-09-22T23:45:25.677Z,7.96
2022-09-22T23:48:31.505Z,7.88
2022-09-22T23:51:34.127Z,7.80
2022-09-22T23:54:36.973Z,7.70
2022-09-22T23:57:39.457Z,7.62
